createdAt,value
2019-06-01T00:01:10.890Z,94650.23
2019-06-01T00:03:40.248Z,94648.16
2019-06-01T00:06:08.743Z,94645.52
2019-06-01T00:08:37.121Z,94645.25
2019-06-01T00:11:05.635Z,94649.69
2019-06-01T00:13:34.066Z,94639.75
2019-06-01T00:16:02.487Z,94648.38
2019-06-01T00:18:30.884Z,94641.05
2019-06-01T00:20:59.317Z,94637.11
2019-06-01T00:23:27.730Z,94641.83
2019-06-01T00:25:56.137Z,94632.38
2019-06-01T00:28:24.530Z,94632.88
2019-06-01T00:30:52.958Z,94632.10
2019-06-01T00:33:21.369Z,94634.42
2019-06-01T00:35:49.763Z,94630.78
2019-06-01T00:38:18.196Z,94629.97
2019-06-01T00:40:47.906Z,94632.33
2019-06-01T00:43:16.433Z,94627.87
2019-06-01T00:45:44.871Z,94624.16
2019-06-01T00:48:13.332Z,94626.75
2019-06-01T00:50:43.005Z,94617.62
2019-06-01T00:53:11.484Z,94620.98
2019-06-01T00:55:39.964Z,94618.11
2019-06-01T00:58:08.347Z,94618.13
2019-06-01T01:00:43.820Z,94616.31
2019-06-01T01:03:06.970Z,94615.76
2019-06-01T01:05:35.403Z,94604.77
2019-06-01T01:08:03.837Z,94608.95
2019-06-01T01:10:32.256Z,94605.81
2019-06-01T01:13:04.937Z,94601.33
2019-06-01T01:15:34.476Z,94604.48
2019-06-01T01:18:02.993Z,94609.44
2019-06-01T01:20:31.413Z,94609.69
2019-06-01T01:22:59.835Z,94613.09
2019-06-01T01:25:28.272Z,94607.56
2019-06-01T01:27:57.072Z,94610.41
2019-06-01T01:30:25.584Z,94616.92
2019-06-01T01:32:54.006Z,94612.22
2019-06-01T01:35:22.414Z,94612.95
2019-06-01T01:37:51.963Z,94611.13
2019-06-01T01:40:20.388Z,94612.41
2019-06-01T01:42:49.010Z,94611.64
2019-06-01T01:45:18.724Z,94611.61
2019-06-01T01:47:47.160Z,94615.25
2019-06-01T01:50:15.794Z,94611.58
2019-06-01T01:52:44.224Z,94612.36
2019-06-01T01:55:12.944Z,94610.49
2019-06-01T01:57:41.363Z,94614.15
2019-06-01T02:00:11.371Z,94615.70
2019-06-01T02:02:39.794Z,94618.05
2019-06-01T02:05:08.843Z,94620.64
2019-06-01T02:07:37.503Z,94623.53
2019-06-01T02:10:10.337Z,94615.91
2019-06-01T02:12:38.749Z,94616.14
2019-06-01T02:15:08.515Z,94610.84
2019-06-01T02:17:36.927Z,94608.50
2019-06-01T02:20:08.220Z,94607.95
2019-06-01T02:22:36.651Z,94604.28
2019-06-01T02:25:06.913Z,94598.25
2019-06-01T02:27:35.341Z,94599.52
2019-06-01T02:30:05.858Z,94600.84
2019-06-01T02:32:34.324Z,94597.19
2019-06-01T02:35:02.811Z,94596.12
2019-06-01T02:37:31.195Z,94595.03
2019-06-01T02:40:00.938Z,94592.40
2019-06-01T02:42:29.392Z,94590.05
2019-06-01T02:44:59.116Z,94591.66
2019-06-01T02:47:27.578Z,94589.27
2019-06-01T02:49:57.586Z,94587.43
2019-06-01T02:52:26.266Z,94584.26
2019-06-01T02:54:55.575Z,94590.02
2019-06-01T02:57:25.528Z,94584.80
2019-06-01T02:59:53.935Z,94585.30
2019-06-01T03:02:22.403Z,94581.13
2019-06-01T03:04:50.884Z,94579.29
2019-06-01T03:07:19.754Z,94584.75
2019-06-01T03:09:48.616Z,94579.75
2019-06-01T03:12:19.507Z,94577.62
2019-06-01T03:14:49.535Z,94583.89
2019-06-01T03:17:19.799Z,94589.34
2019-06-01T03:19:50.314Z,94583.30
2019-06-01T03:22:21.782Z,94577.80
2019-06-01T03:24:52.981Z,94578.30
2019-06-01T03:27:23.146Z,94576.45
2019-06-01T03:29:54.632Z,94576.69
2019-06-01T03:32:35.037Z,94573.04
2019-06-01T03:34:53.253Z,94573.55
2019-06-01T03:37:21.734Z,94572.53
2019-06-01T03:39:50.365Z,94569.66
2019-06-01T03:42:18.846Z,94575.67
2019-06-01T03:44:47.249Z,94570.19
2019-06-01T03:47:15.706Z,94570.94
2019-06-01T03:49:44.171Z,94565.98
2019-06-01T03:52:13.072Z,94569.63
2019-06-01T03:54:41.601Z,94573.28
2019-06-01T03:57:11.159Z,94579.83
2019-06-01T03:59:39.708Z,94574.87
2019-06-01T04:02:09.174Z,94571.52
2019-06-01T04:04:37.636Z,94578.84
2019-06-01T04:07:06.299Z,94577.08
2019-06-01T04:09:34.854Z,94581.01
2019-06-01T04:12:03.545Z,94578.98
2019-06-01T04:14:31.955Z,94582.38
2019-06-01T04:17:01.889Z,94578.52
2019-06-01T04:19:30.357Z,94583.00
2019-06-01T04:21:58.831Z,94582.78
2019-06-01T04:24:27.235Z,94587.00
2019-06-01T04:26:55.624Z,94587.02
2019-06-01T04:29:24.028Z,94585.22
2019-06-01T04:31:52.456Z,94585.00
2019-06-01T04:34:20.924Z,94583.24
2019-06-01T04:36:49.303Z,94590.09
2019-06-01T04:39:17.700Z,94580.22
2019-06-01T04:41:46.163Z,94582.34
2019-06-01T04:44:14.605Z,94573.51
2019-06-01T04:46:43.048Z,94576.16
2019-06-01T04:49:13.261Z,94575.18
2019-06-01T04:51:41.975Z,94576.25
2019-06-01T04:54:11.531Z,94577.59
2019-06-01T04:56:40.357Z,94576.84
2019-06-01T04:59:08.935Z,94580.80
2019-06-01T05:01:37.463Z,94581.09
2019-06-01T05:04:11.153Z,94577.70
2019-06-01T05:06:39.610Z,94574.06
2019-06-01T05:09:09.335Z,94577.48
2019-06-01T05:11:37.892Z,94574.60
2019-06-01T05:14:07.520Z,94578.30
2019-06-01T05:16:36.091Z,94576.72
2019-06-01T05:19:05.962Z,94580.13
2019-06-01T05:21:34.556Z,94573.33
2019-06-01T05:24:02.962Z,94581.20
2019-06-01T05:26:31.355Z,94577.27
2019-06-01T05:28:59.739Z,94576.22
2019-06-01T05:31:28.216Z,94574.36
2019-06-01T05:33:56.570Z,94571.98
2019-06-01T05:36:25.036Z,94577.47
2019-06-01T05:38:53.441Z,94574.79
2019-06-01T05:41:21.846Z,94566.39
2019-06-01T05:43:50.232Z,94571.31
2019-06-01T05:46:18.720Z,94575.98
2019-06-01T05:48:47.099Z,94575.15
2019-06-01T05:51:17.303Z,94574.55
2019-06-01T05:53:45.599Z,94567.09
2019-06-01T05:56:14.788Z,94571.72
2019-06-01T05:58:43.238Z,94563.73
2019-06-01T06:01:12.358Z,94563.89
2019-06-01T06:03:40.951Z,94560.96
2019-06-01T06:06:09.381Z,94562.17
2019-06-01T06:08:37.930Z,94564.49
2019-06-01T06:11:06.345Z,94561.55
2019-06-01T06:13:34.710Z,94562.51
2019-06-01T06:16:03.158Z,94563.19
2019-06-01T06:18:31.604Z,94560.19
2019-06-01T06:21:00.059Z,94560.89
2019-06-01T06:23:28.519Z,94555.83
2019-06-01T06:25:56.909Z,94555.39
2019-06-01T06:28:26.776Z,94554.52
2019-06-01T06:30:55.239Z,94552.79
2019-06-01T06:33:23.782Z,94550.50
2019-06-01T06:35:52.136Z,94552.50
2019-06-01T06:38:22.098Z,94549.33
2019-06-01T06:41:00.188Z,94549.97
2019-06-01T06:43:33.284Z,94546.88
2019-06-01T06:46:07.130Z,94551.02
2019-06-01T06:48:32.880Z,94556.82
2019-06-01T06:51:01.348Z,94552.14
2019-06-01T06:53:34.996Z,94552.61
2019-06-01T06:55:59.856Z,94556.45
2019-06-01T06:58:28.282Z,94551.56
2019-06-01T07:00:56.737Z,94551.38
2019-06-01T07:03:25.275Z,94546.73
2019-06-01T07:05:55.144Z,94553.38
2019-06-01T07:08:23.881Z,94552.49
2019-06-01T07:10:52.329Z,94552.25
2019-06-01T07:13:21.300Z,94552.49
2019-06-01T07:15:49.710Z,94548.60
2019-06-01T07:18:19.351Z,94548.92
2019-06-01T07:20:47.856Z,94543.06
2019-06-01T07:23:16.286Z,94552.31
2019-06-01T07:25:44.842Z,94550.98
2019-06-01T07:28:15.942Z,94550.50
2019-06-01T07:30:50.342Z,94554.17
2019-06-01T07:33:14.506Z,94553.94
2019-06-01T07:35:43.094Z,94550.67
2019-06-01T07:38:11.584Z,94552.45
2019-06-01T07:40:40.021Z,94547.88
2019-06-01T07:43:08.435Z,94549.43
2019-06-01T07:45:36.830Z,94549.08
2019-06-01T07:48:05.314Z,94547.39
2019-06-01T07:50:33.703Z,94544.78
2019-06-01T07:53:02.124Z,94548.73
2019-06-01T07:55:31.745Z,94536.53
2019-06-01T07:58:00.246Z,94539.52
2019-06-01T08:00:29.005Z,94536.53
2019-06-01T08:02:57.436Z,94533.72
2019-06-01T08:05:26.532Z,94527.72
2019-06-01T08:07:56.839Z,94530.70
2019-06-01T08:10:26.205Z,94524.56
2019-06-01T08:12:55.385Z,94524.98
2019-06-01T08:15:23.799Z,94519.92
2019-06-01T08:17:52.210Z,94522.11
2019-06-01T08:20:21.813Z,94517.56
2019-06-01T08:22:50.299Z,94510.17
2019-06-01T08:25:18.783Z,94512.90
2019-06-01T08:27:47.203Z,94515.13
2019-06-01T08:30:16.334Z,94513.48
2019-06-01T08:32:44.737Z,94507.53
2019-06-01T08:35:13.381Z,94503.70
2019-06-01T08:37:41.804Z,94505.30
2019-06-01T08:40:10.448Z,94502.11
2019-06-01T08:42:38.893Z,94496.61
2019-06-01T08:45:10.278Z,94498.05
2019-06-01T08:47:38.719Z,94497.05
2019-06-01T08:50:08.165Z,94491.16
2019-06-01T08:52:36.575Z,94494.26
2019-06-01T08:55:06.892Z,94479.88
2019-06-01T08:57:35.303Z,94479.88
2019-06-01T09:00:08.481Z,94487.18
2019-06-01T09:02:37.042Z,94484.81
2019-06-01T09:05:23.244Z,94484.81
2019-06-01T09:07:39.153Z,94481.70
2019-06-01T09:10:09.965Z,94474.06
2019-06-01T09:12:38.357Z,94483.93
2019-06-01T09:15:08.222Z,94478.56
2019-06-01T09:17:36.648Z,94472.05
2019-06-01T09:20:05.803Z,94477.50
2019-06-01T09:22:34.225Z,94471.86
2019-06-01T09:25:02.619Z,94470.33
2019-06-01T09:27:31.913Z,94461.86
2019-06-01T09:30:00.517Z,94469.26
2019-06-01T09:32:30.047Z,94475.35
2019-06-01T09:34:58.507Z,94474.47
2019-06-01T09:37:26.920Z,94468.45
2019-06-01T09:39:55.354Z,94475.21
2019-06-01T09:42:23.759Z,94470.27
2019-06-01T09:44:52.257Z,94470.52
2019-06-01T09:47:20.662Z,94462.67
2019-06-01T09:49:49.062Z,94469.97
2019-06-01T09:52:17.475Z,94463.16
2019-06-01T09:54:45.934Z,94462.60
2019-06-01T09:57:14.564Z,94465.66
2019-06-01T09:59:42.927Z,94463.16
2019-06-01T10:02:11.473Z,94461.86
2019-06-01T10:04:40.570Z,94456.28
2019-06-01T10:07:08.953Z,94453.66
2019-06-01T10:09:37.823Z,94458.88
2019-06-01T10:12:06.243Z,94458.05
2019-06-01T10:14:34.664Z,94459.11
2019-06-01T10:17:03.134Z,94459.27
2019-06-01T10:19:32.605Z,94453.98
2019-06-01T10:22:01.052Z,94451.30
2019-06-01T10:24:29.466Z,94449.63
2019-06-01T10:26:57.865Z,94448.73
2019-06-01T10:29:26.288Z,94446.89
2019-06-01T10:31:54.697Z,94447.00
2019-06-01T10:34:23.123Z,94446.31
2019-06-01T10:36:51.520Z,94455.56
2019-06-01T10:39:19.948Z,94445.58
2019-06-01T10:41:48.370Z,94444.07
2019-06-01T10:44:16.825Z,94444.36
2019-06-01T10:46:45.247Z,94445.88
2019-06-01T10:49:13.649Z,94446.78
2019-06-01T10:51:42.406Z,94443.66
2019-06-01T10:54:10.841Z,94436.84
2019-06-01T10:56:40.409Z,94439.75
2019-06-01T10:59:08.984Z,94437.42
2019-06-01T11:01:38.840Z,94432.02
2019-06-01T11:04:07.331Z,94423.98
2019-06-01T11:06:40.688Z,94424.30
2019-06-01T11:09:08.541Z,94424.76
2019-06-01T11:11:36.998Z,94424.82
2019-06-01T11:14:05.462Z,94423.17
2019-06-01T11:16:35.086Z,94425.81
2019-06-01T11:19:03.550Z,94429.55
2019-06-01T11:21:33.411Z,94428.00
2019-06-01T11:24:01.926Z,94421.97
2019-06-01T11:26:30.607Z,94417.18
2019-06-01T11:28:59.073Z,94416.75
2019-06-01T11:31:27.484Z,94418.41
2019-06-01T11:33:55.888Z,94417.07
2019-06-01T11:36:24.297Z,94416.57
2019-06-01T11:38:52.698Z,94420.77
2019-06-01T11:41:21.125Z,94425.23
2019-06-01T11:43:49.559Z,94418.34
2019-06-01T11:46:17.946Z,94407.88
2019-06-01T11:48:46.352Z,94414.24
2019-06-01T11:51:14.762Z,94409.66
2019-06-01T11:53:43.510Z,94408.80
2019-06-01T11:56:11.979Z,94406.91
2019-06-01T11:58:41.400Z,94394.11
2019-06-01T12:01:09.865Z,94401.02
2019-06-01T12:03:39.570Z,94393.44
2019-06-01T12:06:08.140Z,94393.63
2019-06-01T12:08:37.864Z,94388.98
2019-06-01T12:11:06.500Z,94395.47
2019-06-01T12:13:36.012Z,94391.26
2019-06-01T12:16:04.474Z,94389.80
2019-06-01T12:18:32.870Z,94381.52
2019-06-01T12:21:01.355Z,94379.19
2019-06-01T12:23:29.765Z,94376.94
2019-06-01T12:25:58.169Z,94381.45
2019-06-01T12:28:26.637Z,94376.95
2019-06-01T12:30:55.033Z,94375.92
2019-06-01T12:33:23.431Z,94375.98
2019-06-01T12:35:51.836Z,94383.66
2019-06-01T12:38:20.256Z,94377.22
2019-06-01T12:40:48.656Z,94368.19
2019-06-01T12:43:17.060Z,94373.05
2019-06-01T12:45:45.823Z,94373.73
2019-06-01T12:48:14.240Z,94367.92
2019-06-01T12:50:46.145Z,94360.23
2019-06-01T12:53:12.833Z,94361.77
2019-06-01T12:55:42.578Z,94365.52
2019-06-01T12:58:11.069Z,94362.09
2019-06-01T13:00:40.380Z,94361.23
2019-06-01T13:03:08.845Z,94351.13
2019-06-01T13:05:37.242Z,94349.26
2019-06-01T13:08:05.730Z,94342.33
2019-06-01T13:10:34.116Z,94342.53
2019-06-01T13:13:02.542Z,94340.27
2019-06-01T13:15:30.959Z,94341.16
2019-06-01T13:17:59.384Z,94335.64
2019-06-01T13:20:27.752Z,94340.85
2019-06-01T13:22:56.160Z,94337.36
2019-06-01T13:25:24.548Z,94330.93
2019-06-01T13:27:56.817Z,94328.01
2019-06-01T13:30:25.212Z,94323.98
2019-06-01T13:32:53.611Z,94322.11
2019-06-01T13:35:22.000Z,94326.95
2019-06-01T13:37:50.997Z,94320.73
2019-06-01T13:40:20.518Z,94320.05
2019-06-01T13:42:49.151Z,94315.87
2019-06-01T13:45:17.650Z,94316.48
2019-06-01T13:47:46.051Z,94310.73
2019-06-01T13:50:14.883Z,94316.45
2019-06-01T13:52:43.899Z,94312.08
2019-06-01T13:55:12.579Z,94315.97
2019-06-01T13:57:40.980Z,94305.97
2019-06-01T14:00:10.092Z,94310.14
2019-06-01T14:02:38.510Z,94302.48
2019-06-01T14:05:08.227Z,94302.40
2019-06-01T14:07:36.745Z,94295.41
2019-06-01T14:10:06.887Z,94283.20
2019-06-01T18:19:56.461Z,94248.31
2019-06-01T18:22:25.161Z,94246.56
2019-06-01T18:24:53.547Z,94242.42
2019-06-01T18:27:21.948Z,94243.36
2019-06-01T18:29:50.599Z,94251.01
2019-06-01T18:32:18.988Z,94248.98
2019-06-01T18:34:47.362Z,94250.12
2019-06-01T18:37:15.827Z,94256.63
2019-06-01T18:39:47.766Z,94247.57
2019-06-01T18:42:18.552Z,94251.15
2019-06-01T18:44:44.768Z,94252.74
2019-06-01T18:47:13.926Z,94254.56
2019-06-01T18:49:43.267Z,94252.46
2019-06-01T18:52:12.758Z,94252.25
2019-06-01T18:54:41.144Z,94249.77
2019-06-01T18:57:19.238Z,94256.98
2019-06-01T18:59:39.953Z,94254.72
2019-06-01T19:02:08.438Z,94263.13
2019-06-01T19:04:37.126Z,94264.15
2019-06-01T19:07:07.135Z,94262.41
2019-06-01T19:09:35.828Z,94264.47
2019-06-01T19:12:04.794Z,94262.64
2019-06-01T19:14:33.183Z,94267.51
2019-06-01T19:17:01.760Z,94267.08
2019-06-01T19:19:30.467Z,94268.98
2019-06-01T19:21:58.857Z,94266.03
2019-06-01T19:24:27.242Z,94277.00
2019-06-01T19:26:55.918Z,94276.70
2019-06-01T19:29:24.305Z,94280.52
2019-06-01T19:31:52.981Z,94278.27
2019-06-01T19:34:21.775Z,94285.94
2019-06-01T19:36:51.947Z,94291.58
2019-06-01T19:39:20.775Z,94291.58
2019-06-01T19:41:49.469Z,94294.08
2019-06-01T19:44:17.997Z,94296.27
2019-06-01T19:46:46.433Z,94288.48
2019-06-01T19:49:15.070Z,94288.47
2019-06-01T19:51:43.810Z,94297.73
2019-06-01T19:54:12.846Z,94305.13
2019-06-01T19:56:41.292Z,94305.48
2019-06-01T19:59:09.975Z,94310.73
2019-06-01T20:01:38.356Z,94310.73
2019-06-01T20:04:06.716Z,94312.27
2019-06-01T20:06:35.100Z,94313.78
2019-06-01T20:09:06.049Z,94316.40
2019-06-01T20:11:34.443Z,94315.96
2019-06-01T20:14:02.831Z,94311.19
2019-06-01T20:16:31.256Z,94310.53
2019-06-01T20:18:59.974Z,94318.91
2019-06-01T20:21:28.364Z,94317.89
2019-06-01T20:23:56.747Z,94312.79
2019-06-01T20:26:38.985Z,94315.55
2019-06-01T20:28:55.844Z,94323.99
2019-06-01T20:31:24.241Z,94323.70
2019-06-01T20:33:56.098Z,94322.53
2019-06-01T20:36:22.733Z,94326.61
2019-06-01T20:38:51.118Z,94324.14
2019-06-01T20:41:20.683Z,94322.76
2019-06-01T20:43:49.161Z,94321.70
2019-06-01T20:46:18.744Z,94314.13
2019-06-01T20:48:47.319Z,94318.58
2019-06-01T20:51:16.794Z,94312.84
2019-06-01T20:53:45.847Z,94313.28
2019-06-01T20:56:15.367Z,94313.91
2019-06-01T20:58:43.906Z,94313.31
2019-06-01T21:01:13.885Z,94316.95
2019-06-01T21:03:42.374Z,94318.15
2019-06-01T21:06:11.058Z,94317.35
2019-06-01T21:08:39.448Z,94320.04
2019-06-01T21:11:08.133Z,94317.22
2019-06-01T21:13:36.530Z,94319.95
2019-06-01T21:16:04.986Z,94312.80
2019-06-01T21:18:33.383Z,94317.70
2019-06-01T21:21:01.766Z,94316.58
2019-06-01T21:23:30.167Z,94321.30
2019-06-01T21:25:58.587Z,94312.81
2019-06-01T21:28:27.069Z,94316.95
2019-06-01T21:30:55.444Z,94317.84
2019-06-01T21:33:27.120Z,94317.59
2019-06-01T21:35:54.259Z,94318.86
2019-06-01T21:38:23.659Z,94319.98
2019-06-01T21:40:52.110Z,94319.39
2019-06-01T21:43:29.279Z,94318.75
2019-06-01T21:45:50.621Z,94323.87
2019-06-01T21:48:19.757Z,94315.25
2019-06-01T21:50:48.295Z,94326.19
2019-06-01T21:53:17.853Z,94322.08
2019-06-01T21:55:46.713Z,94324.50
2019-06-01T21:58:16.455Z,94323.23
2019-06-01T22:00:46.974Z,94320.12
2019-06-01T22:03:16.717Z,94320.23
2019-06-01T22:05:45.315Z,94319.75
2019-06-01T22:08:14.039Z,94322.94
2019-06-01T22:10:42.447Z,94322.14
2019-06-01T22:13:18.696Z,94315.52
2019-06-01T22:15:41.043Z,94315.04
2019-06-01T22:18:09.776Z,94317.43
2019-06-01T22:20:38.179Z,94319.89
2019-06-01T22:23:06.565Z,94321.53
2019-06-01T22:25:35.255Z,94323.17
2019-06-01T22:28:04.040Z,94315.09
2019-06-01T22:30:32.430Z,94321.72
2019-06-01T22:33:01.063Z,94320.25
2019-06-01T22:35:29.455Z,94323.20
2019-06-01T22:37:57.840Z,94322.72
2019-06-01T22:40:27.281Z,94319.36
2019-06-01T22:42:55.814Z,94316.52
2019-06-01T22:45:24.716Z,94319.45
2019-06-01T22:47:53.437Z,94318.23
2019-06-01T22:50:22.704Z,94312.73
2019-06-01T22:52:51.116Z,94311.48
2019-06-01T22:55:20.097Z,94313.59
2019-06-01T22:57:48.579Z,94318.43
2019-06-01T23:00:17.869Z,94310.36
2019-06-01T23:02:46.246Z,94304.95
2019-06-01T23:05:15.080Z,94315.37
2019-06-01T23:07:43.454Z,94308.55
2019-06-01T23:10:12.734Z,94310.20
2019-06-01T23:12:41.123Z,94315.50
2019-06-01T23:15:09.760Z,94310.57
2019-06-01T23:17:38.136Z,94308.25
2019-06-01T23:20:07.101Z,94311.18
2019-06-01T23:22:35.758Z,94313.05
2019-06-01T23:25:04.687Z,94308.36
2019-06-01T23:27:33.072Z,94302.73
2019-06-01T23:30:01.461Z,94303.30
2019-06-01T23:32:30.691Z,94302.87
2019-06-01T23:34:59.607Z,94308.23
2019-06-01T23:37:28.818Z,94309.39
2019-06-01T23:39:57.261Z,94306.79
2019-06-01T23:42:26.757Z,94308.40
2019-06-01T23:44:55.223Z,94309.76
2019-06-01T23:47:25.588Z,94303.78
2019-06-01T23:49:54.154Z,94307.22
2019-06-01T23:52:23.561Z,94304.38
2019-06-01T23:54:52.004Z,94298.13
2019-06-01T23:57:20.580Z,94298.42
2019-06-01T23:59:49.237Z,94296.66
